Time;durP1;ratioP1;P1;durP2;ratioP2;P2;SDS_P1;SDS_P2;PMS_P1;PMS_P2;Temp;Humidity;BMP_temperature;BMP_pressure;BME280_temperature;BME280_humidity;BME280_pressure;Samples;Min_cycle;Max_cycle;Signal;HPM_P1;HPM_P2
2022/07/12 00:00:14;;;;;;;2.17;2.08;;;22.60;52.70;;;;;;4979623;28;20193;-69
2022/07/12 00:02:41;;;;;;;2.25;2.05;;;22.60;52.70;;;;;;4997245;28;20201;-70
2022/07/12 00:05:09;;;;;;;2.10;1.90;;;22.50;52.60;;;;;;4979852;28;20200;-69
2022/07/12 00:07:36;;;;;;;2.17;2.08;;;22.50;52.70;;;;;;4979292;28;20706;-69
2022/07/12 00:10:05;;;;;;;2.40;2.20;;;22.50;52.70;;;;;;4979624;28;20197;-69
2022/07/12 00:12:33;;;;;;;2.55;2.35;;;22.50;52.70;;;;;;4979428;28;20197;-69
2022/07/12 00:15:00;;;;;;;2.60;2.40;;;22.50;52.80;;;;;;4979204;28;20296;-69
2022/07/12 00:17:27;;;;;;;2.30;2.20;;;22.50;52.70;;;;;;4996579;28;20185;-69
2022/07/12 00:19:54;;;;;;;2.40;2.20;;;22.50;52.80;;;;;;4978576;28;20205;-69
2022/07/12 00:22:22;;;;;;;2.55;2.35;;;22.50;52.80;;;;;;4996518;28;20190;-69
2022/07/12 00:24:49;;;;;;;2.50;2.30;;;22.50;52.80;;;;;;4978945;28;20202;-69
2022/07/12 00:27:18;;;;;;;2.53;2.25;;;22.40;52.80;;;;;;4978935;28;20244;-69
2022/07/12 00:29:46;;;;;;;2.28;2.08;;;22.40;52.80;;;;;;4978821;28;20304;-69
2022/07/12 00:32:14;;;;;;;2.75;2.55;;;22.40;52.80;;;;;;4978782;28;20197;-69
2022/07/12 00:34:42;;;;;;;2.30;2.10;;;22.40;52.80;;;;;;4978907;28;20656;-69
2022/07/12 00:37:08;;;;;;;2.15;1.95;;;22.40;52.80;;;;;;4996418;28;20185;-69
2022/07/12 00:39:36;;;;;;;2.35;2.20;;;22.40;52.80;;;;;;4978645;28;20253;-69
2022/07/12 00:42:03;;;;;;;2.42;2.22;;;22.40;52.90;;;;;;4978994;28;20687;-69
2022/07/12 00:44:33;;;;;;;2.40;2.20;;;22.40;52.90;;;;;;4978557;28;20204;-70
2022/07/12 00:47:00;;;;;;;2.38;2.17;;;22.40;52.90;;;;;;4978431;28;20264;-70
2022/07/12 00:49:28;;;;;;;2.60;2.40;;;22.40;53.00;;;;;;4978496;28;20217;-69
2022/07/12 00:51:55;;;;;;;2.50;2.30;;;22.30;52.80;;;;;;4995763;28;20616;-69
2022/07/12 00:54:23;;;;;;;2.40;2.28;;;22.40;53.00;;;;;;4995988;28;20190;-69
2022/07/12 00:56:50;;;;;;;2.47;2.28;;;22.40;53.00;;;;;;4978372;28;20201;-69
2022/07/12 00:59:17;;;;;;;2.30;2.20;;;22.30;52.90;;;;;;4978267;28;20594;-69
2022/07/12 01:01:45;;;;;;;2.78;2.40;;;22.30;52.90;;;;;;4978509;28;20239;-69
2022/07/12 01:04:13;;;;;;;2.53;2.33;;;22.30;53.00;;;;;;4978343;28;20225;-69
2022/07/12 01:06:40;;;;;;;2.65;2.45;;;22.30;53.00;;;;;;4978300;28;20197;-69
2022/07/12 01:09:07;;;;;;;2.38;2.17;;;22.30;53.00;;;;;;4995746;28;20214;-69
2022/07/12 01:11:35;;;;;;;2.58;2.38;;;22.30;53.00;;;;;;4978176;28;20585;-70
2022/07/12 01:14:03;;;;;;;2.45;2.25;;;22.30;53.00;;;;;;5019655;22;20197;-69
2022/07/12 01:20:18;;;;;;;2.35;2.20;;;22.30;53.10;;;;;;4997092;28;20692;-70
2022/07/12 01:22:51;;;;;;;2.22;2.13;;;22.20;53.00;;;;;;4995322;28;20196;-68
2022/07/12 01:25:18;;;;;;;2.35;2.25;;;22.20;53.10;;;;;;4977835;28;20718;-68
2022/07/12 01:27:45;;;;;;;2.40;2.25;;;22.30;53.10;;;;;;4978044;28;20241;-71
2022/07/12 01:30:12;;;;;;;2.53;2.35;;;22.30;53.20;;;;;;4977090;28;20299;-70
2022/07/12 01:32:39;;;;;;;2.17;2.03;;;22.20;53.10;;;;;;4978309;28;20555;-70
2022/07/12 01:35:08;;;;;;;2.75;2.55;;;22.20;53.00;;;;;;4977583;28;20221;-70
2022/07/12 01:37:36;;;;;;;2.72;2.53;;;22.20;53.00;;;;;;4977462;28;20197;-68
2022/07/12 01:40:06;;;;;;;2.47;2.30;;;22.20;53.10;;;;;;4977398;28;20208;-70
2022/07/12 01:42:33;;;;;;;2.50;2.30;;;22.20;53.10;;;;;;4994859;28;20182;-69
2022/07/12 01:45:01;;;;;;;2.50;2.30;;;22.20;53.10;;;;;;4977235;28;20348;-69
2022/07/12 01:47:29;;;;;;;2.45;2.28;;;22.20;53.20;;;;;;4977214;28;20225;-70
2022/07/12 01:49:56;;;;;;;2.53;2.33;;;22.20;53.20;;;;;;4994830;28;20190;-70
2022/07/12 01:52:23;;;;;;;2.42;2.28;;;22.20;53.20;;;;;;4977271;28;20305;-70
2022/07/12 01:54:51;;;;;;;2.10;2.00;;;22.20;53.20;;;;;;4977012;28;20225;-69
2022/07/12 01:57:19;;;;;;;2.40;2.20;;;22.20;53.20;;;;;;4977440;28;20224;-69
2022/07/12 01:59:47;;;;;;;2.20;2.10;;;22.20;53.20;;;;;;4977030;28;20222;-69
2022/07/12 02:02:14;;;;;;;2.20;2.10;;;22.10;53.10;;;;;;4976865;28;20201;-70
2022/07/12 02:04:41;;;;;;;2.38;2.20;;;22.10;53.20;;;;;;4976843;28;20214;-69
2022/07/12 02:07:08;;;;;;;2.20;2.00;;;22.10;53.20;;;;;;4977063;28;20663;-68
2022/07/12 02:09:35;;;;;;;2.15;2.05;;;22.10;53.20;;;;;;4994245;28;20686;-69
2022/07/12 02:12:03;;;;;;;2.20;2.10;;;22.10;53.20;;;;;;4976979;28;20206;-69
2022/07/12 02:14:31;;;;;;;2.50;2.30;;;22.10;53.20;;;;;;4976665;28;20213;-69
2022/07/12 02:16:58;;;;;;;2.25;2.10;;;22.10;53.20;;;;;;4976997;28;20202;-70
2022/07/12 02:19:25;;;;;;;2.40;2.20;;;22.10;53.30;;;;;;4994656;28;20244;-68
2022/07/12 02:21:52;;;;;;;2.50;2.30;;;22.10;53.30;;;;;;4976623;28;20197;-70
2022/07/12 02:24:19;;;;;;;2.65;2.45;;;22.10;53.30;;;;;;5208902;23;20244;-69
2022/07/12 02:26:46;;;;;;;2.25;2.10;;;22.10;53.30;;;;;;4976835;28;20264;-67
2022/07/12 02:29:13;;;;;;;2.13;2.03;;;22.00;53.20;;;;;;4976555;28;20217;-67
2022/07/12 02:31:42;;;;;;;2.28;2.08;;;22.10;53.30;;;;;;4976989;28;20193;-67
2022/07/12 02:34:09;;;;;;;2.40;2.20;;;22.10;53.40;;;;;;4976386;28;20205;-67
2022/07/12 02:36:36;;;;;;;2.15;2.00;;;22.10;53.40;;;;;;4976380;28;20197;-67
2022/07/12 02:39:04;;;;;;;2.20;2.10;;;22.00;53.30;;;;;;4976461;28;20247;-67
2022/07/12 02:41:30;;;;;;;2.20;2.10;;;22.00;53.30;;;;;;4976126;28;20630;-67
2022/07/12 02:43:57;;;;;;;2.10;2.00;;;22.00;53.30;;;;;;4976193;28;20221;-66
2022/07/12 02:46:25;;;;;;;1.95;1.83;;;22.00;53.30;;;;;;4976225;28;20607;-67
2022/07/12 02:48:53;;;;;;;2.10;1.98;;;22.00;53.40;;;;;;4976486;28;20217;-66
2022/07/12 02:51:21;;;;;;;2.00;1.90;;;22.00;53.40;;;;;;4976325;28;20681;-67
2022/07/12 02:53:48;;;;;;;1.90;1.80;;;22.00;53.40;;;;;;4976742;28;20201;-68
2022/07/12 02:56:15;;;;;;;2.20;2.10;;;22.00;53.40;;;;;;4976312;28;20217;-66
2022/07/12 02:58:42;;;;;;;2.53;2.33;;;22.00;53.40;;;;;;4976274;28;20189;-67
2022/07/12 03:01:10;;;;;;;2.55;2.35;;;22.00;53.40;;;;;;4976179;28;20200;-66
2022/07/12 03:03:37;;;;;;;2.50;2.30;;;22.00;53.50;;;;;;4976194;28;20297;-67
2022/07/12 03:06:06;;;;;;;2.13;2.00;;;22.00;53.40;;;;;;4975976;28;20213;-67
2022/07/12 03:08:33;;;;;;;2.35;2.15;;;22.00;53.50;;;;;;4993453;28;20224;-67
2022/07/12 03:11:00;;;;;;;2.20;2.00;;;21.90;53.40;;;;;;4976125;28;20248;-67
2022/07/12 03:13:27;;;;;;;2.22;2.13;;;21.90;53.50;;;;;;4993885;28;20670;-67
2022/07/12 03:15:54;;;;;;;2.20;2.00;;;21.90;53.50;;;;;;4976188;28;20220;-67
2022/07/12 03:18:21;;;;;;;2.20;2.00;;;22.00;53.60;;;;;;4976247;28;20201;-67
2022/07/12 03:20:49;;;;;;;2.50;2.30;;;22.00;53.60;;;;;;4976309;28;20288;-67
2022/07/12 03:23:18;;;;;;;2.10;1.90;;;22.00;53.60;;;;;;4976072;28;20213;-67
2022/07/12 03:25:45;;;;;;;2.20;2.00;;;22.00;53.50;;;;;;4993417;28;20260;-67
2022/07/12 03:28:12;;;;;;;2.38;2.17;;;22.00;53.30;;;;;;4975995;28;20241;-67
2022/07/12 03:30:39;;;;;;;2.10;2.00;;;22.10;53.40;;;;;;4993705;28;20204;-67
2022/07/12 03:33:07;;;;;;;2.00;1.90;;;22.10;53.40;;;;;;4975970;28;20292;-67
2022/07/12 03:35:35;;;;;;;2.20;2.00;;;22.10;53.30;;;;;;4975792;28;20272;-67
2022/07/12 03:38:01;;;;;;;2.10;1.90;;;22.10;53.20;;;;;;4975998;28;20197;-67
2022/07/12 03:40:32;;;;;;;2.00;1.90;;;22.10;53.10;;;;;;4975959;28;20205;-67
2022/07/12 03:42:59;;;;;;;1.77;1.67;;;22.10;53.10;;;;;;4976028;28;20282;-66
2022/07/12 03:45:26;;;;;;;1.80;1.70;;;22.10;53.10;;;;;;4975940;28;20694;-67
2022/07/12 03:47:53;;;;;;;2.22;1.92;;;22.10;53.00;;;;;;4975667;28;20217;-67
2022/07/12 03:50:20;;;;;;;1.95;1.85;;;22.20;53.10;;;;;;4975831;28;20203;-67
2022/07/12 03:52:48;;;;;;;2.10;1.90;;;22.10;53.00;;;;;;4975876;28;20205;-67
2022/07/12 03:55:15;;;;;;;1.90;1.80;;;22.20;53.00;;;;;;4996372;28;20280;-67
2022/07/12 03:57:43;;;;;;;2.22;1.83;;;22.20;53.00;;;;;;4979384;28;20252;-67
2022/07/12 04:00:11;;;;;;;2.00;1.90;;;22.20;53.00;;;;;;4979233;28;20205;-66
2022/07/12 04:02:39;;;;;;;1.70;1.60;;;22.20;53.00;;;;;;4979426;28;20553;-67
2022/07/12 04:05:07;;;;;;;1.77;1.67;;;22.20;53.00;;;;;;4997286;28;20209;-66
2022/07/12 04:07:35;;;;;;;1.90;1.80;;;22.20;53.00;;;;;;4996969;28;20204;-67
2022/07/12 04:10:02;;;;;;;1.85;1.75;;;22.20;52.90;;;;;;4979878;28;20205;-66
2022/07/12 04:12:29;;;;;;;1.90;1.80;;;22.20;53.00;;;;;;4979022;28;20211;-67
2022/07/12 04:14:57;;;;;;;2.00;1.80;;;22.10;53.40;;;;;;4979324;28;20224;-67
2022/07/12 04:17:24;;;;;;;2.30;2.10;;;22.20;52.90;;;;;;4979642;28;20229;-67
2022/07/12 04:19:53;;;;;;;2.10;2.00;;;22.20;52.90;;;;;;4980339;28;20259;-67
2022/07/12 04:22:20;;;;;;;2.10;1.92;;;22.20;52.90;;;;;;4996881;28;20232;-68
2022/07/12 04:24:47;;;;;;;1.98;1.80;;;22.10;52.80;;;;;;4979198;28;20229;-68
2022/07/12 04:27:15;;;;;;;2.15;2.05;;;22.20;53.00;;;;;;4996407;28;20304;-67
2022/07/12 04:29:43;;;;;;;1.85;1.75;;;22.20;52.90;;;;;;4996371;28;20241;-67
2022/07/12 04:32:11;;;;;;;1.60;1.50;;;22.10;52.80;;;;;;4979023;28;20201;-66
2022/07/12 04:34:38;;;;;;;1.83;1.73;;;22.20;52.90;;;;;;4979219;28;20214;-67
2022/07/12 04:37:06;;;;;;;1.60;1.50;;;22.10;53.40;;;;;;4979209;28;20682;-66
2022/07/12 04:39:33;;;;;;;1.98;1.80;;;22.20;52.80;;;;;;4996146;28;20217;-67
2022/07/12 04:42:00;;;;;;;1.80;1.70;;;22.20;52.80;;;;;;4978760;28;20639;-67
2022/07/12 04:44:27;;;;;;;1.98;1.88;;;22.20;52.80;;;;;;4978700;28;20279;-68
2022/07/12 04:46:54;;;;;;;2.08;1.83;;;22.20;52.80;;;;;;4978380;28;20212;-66
2022/07/12 04:49:23;;;;;;;1.90;1.80;;;22.30;52.70;;;;;;4978599;28;20214;-67
2022/07/12 04:51:50;;;;;;;1.90;1.80;;;22.30;52.50;;;;;;4978483;28;20736;-67
2022/07/12 04:54:17;;;;;;;1.88;1.63;;;22.30;52.40;;;;;;4978971;28;20686;-67
2022/07/12 04:56:44;;;;;;;1.85;1.75;;;22.40;52.10;;;;;;4978884;28;20256;-67
2022/07/12 04:59:11;;;;;;;1.88;1.70;;;22.60;52.00;;;;;;4995849;28;20221;-67
2022/07/12 05:01:39;;;;;;;1.90;1.80;;;22.70;51.60;;;;;;4978347;28;20197;-67
2022/07/12 05:04:07;;;;;;;1.80;1.70;;;22.90;51.30;;;;;;4978270;28;20302;-67
2022/07/12 05:06:35;;;;;;;1.75;1.65;;;23.00;50.90;;;;;;4978186;28;20202;-67
2022/07/12 05:09:02;;;;;;;1.70;1.60;;;23.20;50.50;;;;;;4995776;28;20244;-67
2022/07/12 05:11:29;;;;;;;2.05;1.67;;;23.40;50.10;;;;;;4978499;28;20193;-67
2022/07/12 05:13:56;;;;;;;1.75;1.65;;;23.60;49.90;;;;;;4978451;28;20201;-66
2022/07/12 05:16:23;;;;;;;1.70;1.60;;;23.70;49.50;;;;;;4978458;28;20650;-67
2022/07/12 05:18:53;;;;;;;1.60;1.50;;;23.80;49.10;;;;;;4995598;28;20272;-67
2022/07/12 05:21:20;;;;;;;1.80;1.70;;;24.00;49.00;;;;;;4978662;28;20198;-67
2022/07/12 05:23:49;;;;;;;1.70;1.60;;;24.10;48.80;;;;;;4995593;28;20204;-67
2022/07/12 05:26:17;;;;;;;1.80;1.70;;;24.20;48.50;;;;;;5008980;28;20198;-69
2022/07/12 05:28:44;;;;;;;1.70;1.60;;;24.30;48.10;;;;;;4986611;28;20213;-67
2022/07/12 05:31:11;;;;;;;2.00;1.90;;;24.40;48.00;;;;;;4978737;28;20237;-67
2022/07/12 05:33:38;;;;;;;2.05;1.70;;;24.50;47.70;;;;;;4978292;28;20202;-69
2022/07/12 05:36:05;;;;;;;1.80;1.70;;;24.60;47.60;;;;;;4995203;28;20244;-69
2022/07/12 05:38:33;;;;;;;1.88;1.77;;;24.70;47.40;;;;;;4977847;28;20209;-69
2022/07/12 05:41:01;;;;;;;1.60;1.50;;;24.80;47.30;;;;;;4978062;28;20232;-69
2022/07/12 05:43:28;;;;;;;1.83;1.73;;;24.90;47.10;;;;;;4978166;28;20202;-67
2022/07/12 05:45:56;;;;;;;1.90;1.80;;;24.90;46.90;;;;;;4977659;28;20599;-67
2022/07/12 05:48:23;;;;;;;1.73;1.63;;;25.00;46.80;;;;;;4995080;28;20193;-68
2022/07/12 05:50:50;;;;;;;1.65;1.45;;;25.10;46.50;;;;;;4977620;28;20420;-67
2022/07/12 05:53:21;;;;;;;1.70;1.60;;;25.20;46.40;;;;;;4977943;28;20202;-67
2022/07/12 05:55:49;;;;;;;1.90;1.80;;;25.30;46.30;;;;;;4995170;28;20220;-67
2022/07/12 05:58:17;;;;;;;1.77;1.67;;;25.30;46.00;;;;;;4977208;28;20208;-67
2022/07/12 06:00:46;;;;;;;2.00;1.90;;;25.40;45.90;;;;;;4977102;28;20248;-67
2022/07/12 06:03:13;;;;;;;2.20;1.98;;;25.50;45.80;;;;;;4994625;28;20200;-67
2022/07/12 06:05:40;;;;;;;2.10;1.90;;;25.50;45.50;;;;;;4994463;28;20220;-67
2022/07/12 06:08:07;;;;;;;2.00;1.77;;;25.60;45.60;;;;;;4977399;28;20200;-67
2022/07/12 06:10:34;;;;;;;2.05;1.90;;;25.60;45.40;;;;;;4977013;28;20417;-69
2022/07/12 06:13:02;;;;;;;2.10;1.92;;;25.70;45.40;;;;;;4977225;28;20308;-69
2022/07/12 06:15:30;;;;;;;1.85;1.75;;;25.80;45.40;;;;;;4976967;28;20728;-69
2022/07/12 06:17:57;;;;;;;1.90;1.80;;;25.80;45.30;;;;;;4976800;28;20209;-69
2022/07/12 06:20:25;;;;;;;1.88;1.77;;;25.90;45.20;;;;;;4977132;28;20275;-69
2022/07/12 06:22:52;;;;;;;1.77;1.67;;;25.90;45.10;;;;;;4994452;28;20277;-69
2022/07/12 06:25:19;;;;;;;2.42;1.95;;;25.90;45.00;;;;;;4976750;28;20217;-69
2022/07/12 06:27:47;;;;;;;2.08;1.95;;;26.00;44.90;;;;;;4994170;28;20196;-69
2022/07/12 06:30:17;;;;;;;2.15;1.95;;;26.10;44.80;;;;;;4976646;28;20221;-69
2022/07/12 06:32:46;;;;;;;2.50;2.30;;;26.10;44.80;;;;;;4976781;28;20202;-69
2022/07/12 06:35:13;;;;;;;2.08;1.98;;;26.10;44.60;;;;;;4994440;28;20221;-69
2022/07/12 06:37:41;;;;;;;1.92;1.83;;;26.20;44.60;;;;;;4977540;28;20205;-69
2022/07/12 06:40:08;;;;;;;2.05;1.92;;;26.20;44.50;;;;;;4977201;28;20737;-69
2022/07/12 06:42:36;;;;;;;2.20;2.00;;;26.30;44.50;;;;;;4994287;28;20202;-69
2022/07/12 06:45:03;;;;;;;2.55;2.35;;;26.30;45.00;;;;;;4976559;28;20231;-70
2022/07/12 06:47:30;;;;;;;1.92;1.80;;;26.40;44.20;;;;;;4976638;28;20193;-69
2022/07/12 06:49:58;;;;;;;2.33;2.05;;;26.40;44.10;;;;;;4976800;28;20591;-69
2022/07/12 06:52:25;;;;;;;1.92;1.83;;;26.40;43.90;;;;;;4993955;28;20198;-69
2022/07/12 06:54:52;;;;;;;3.00;2.00;;;26.50;43.90;;;;;;4976485;28;20232;-69
2022/07/12 06:57:19;;;;;;;2.15;2.05;;;26.60;43.90;;;;;;4976725;28;20557;-69
2022/07/12 06:59:47;;;;;;;2.10;2.00;;;26.60;43.70;;;;;;4976681;28;20194;-68
2022/07/12 07:02:15;;;;;;;2.20;2.00;;;26.60;43.60;;;;;;4977423;28;20247;-70
2022/07/12 07:04:42;;;;;;;2.17;1.95;;;26.60;44.10;;;;;;4996911;28;20292;-69
2022/07/12 07:07:10;;;;;;;2.50;2.30;;;26.70;43.50;;;;;;4983394;28;20296;-70
2022/07/12 07:09:37;;;;;;;2.20;2.10;;;26.70;43.40;;;;;;4985149;28;20221;-70
2022/07/12 07:12:06;;;;;;;3.85;2.53;;;26.80;43.30;;;;;;4978439;28;20243;-70
2022/07/12 07:14:33;;;;;;;2.17;1.98;;;26.80;43.20;;;;;;4977189;28;20221;-69
2022/07/12 07:17:00;;;;;;;2.10;1.90;;;26.90;43.70;;;;;;4976306;28;20197;-69
2022/07/12 07:19:27;;;;;;;2.30;2.10;;;26.90;42.90;;;;;;4976127;28;20201;-69
2022/07/12 07:21:55;;;;;;;2.40;2.20;;;27.00;42.90;;;;;;4993758;28;20275;-69
2022/07/12 07:24:23;;;;;;;2.38;2.17;;;27.10;42.80;;;;;;4993683;28;20220;-69
2022/07/12 07:26:50;;;;;;;2.75;1.90;;;27.10;42.60;;;;;;4976324;28;20208;-69
2022/07/12 07:32:02;;;;;;;2.05;1.95;;;27.20;42.40;;;;;;4979770;28;20197;-69
2022/07/12 07:34:29;;;;;;;2.10;1.90;;;27.20;42.30;;;;;;4997410;28;20251;-69
2022/07/12 07:36:56;;;;;;;2.13;1.92;;;27.30;42.10;;;;;;4979567;28;20197;-68
2022/07/12 07:39:24;;;;;;;2.22;2.03;;;27.30;42.10;;;;;;4979735;28;20577;-69
2022/07/12 07:41:51;;;;;;;2.13;2.00;;;27.40;42.00;;;;;;4997252;28;20673;-69
2022/07/12 07:44:18;;;;;;;2.10;1.90;;;27.40;41.80;;;;;;4979710;28;20217;-69
2022/07/12 07:46:45;;;;;;;2.08;1.88;;;27.50;41.70;;;;;;4997149;28;20699;-68
2022/07/12 07:49:12;;;;;;;2.03;1.83;;;27.60;41.60;;;;;;4979556;28;20223;-69
2022/07/12 07:51:39;;;;;;;1.73;1.63;;;27.60;41.60;;;;;;4996824;28;20193;-69
2022/07/12 07:54:06;;;;;;;1.80;1.70;;;27.70;41.40;;;;;;4979370;28;20197;-69
2022/07/12 07:56:35;;;;;;;1.80;1.70;;;27.70;41.40;;;;;;4979501;28;20609;-69
2022/07/12 07:59:02;;;;;;;2.00;1.90;;;27.70;41.30;;;;;;4979297;28;20228;-69
2022/07/12 08:01:44;;;;;;;1.90;1.80;;;27.70;41.30;;;;;;4979450;28;20216;-69
2022/07/12 08:04:11;;;;;;;1.75;1.63;;;27.70;41.20;;;;;;4996768;28;20205;-69
2022/07/12 08:06:39;;;;;;;1.80;1.70;;;27.70;41.20;;;;;;4979106;28;20248;-69
2022/07/12 08:09:06;;;;;;;1.67;1.58;;;27.70;41.20;;;;;;4979305;28;20688;-69
2022/07/12 08:11:35;;;;;;;1.80;1.70;;;27.60;41.20;;;;;;4997158;28;20188;-69
2022/07/12 08:14:02;;;;;;;1.85;1.65;;;27.60;41.20;;;;;;4979453;28;20200;-69
2022/07/12 08:16:30;;;;;;;1.73;1.63;;;27.60;41.20;;;;;;4979379;28;20299;-69
2022/07/12 08:18:56;;;;;;;1.90;1.80;;;27.70;41.20;;;;;;4978940;28;20251;-69
2022/07/12 08:21:24;;;;;;;1.80;1.70;;;27.70;41.00;;;;;;4978767;28;20205;-69
2022/07/12 08:23:51;;;;;;;1.80;1.70;;;27.80;40.90;;;;;;4978858;28;20227;-69
2022/07/12 08:26:18;;;;;;;1.65;1.55;;;27.90;41.40;;;;;;4978672;28;20217;-69
2022/07/12 08:28:47;;;;;;;1.60;1.50;;;27.90;40.60;;;;;;4978840;28;20650;-69
2022/07/12 08:31:14;;;;;;;1.73;1.63;;;28.00;40.50;;;;;;4996013;28;20223;-70
2022/07/12 08:33:41;;;;;;;2.38;1.80;;;28.10;40.40;;;;;;4978706;28;20236;-68
2022/07/12 08:36:09;;;;;;;1.83;1.73;;;28.10;40.30;;;;;;4978934;28;20212;-69
2022/07/12 08:38:36;;;;;;;1.67;1.58;;;28.20;40.30;;;;;;4978620;28;20290;-69
2022/07/12 08:41:04;;;;;;;1.70;1.60;;;28.20;40.20;;;;;;4978020;28;20634;-69
2022/07/12 08:43:33;;;;;;;1.75;1.65;;;28.20;40.10;;;;;;4996273;28;20193;-69
2022/07/12 08:46:05;;;;;;;1.80;1.70;;;28.20;40.10;;;;;;4978705;28;20319;-69
2022/07/12 08:48:34;;;;;;;1.95;1.85;;;28.20;40.00;;;;;;4995924;28;20217;-69
2022/07/12 08:51:02;;;;;;;1.67;1.58;;;28.30;40.10;;;;;;4978396;28;20217;-69
2022/07/12 08:53:29;;;;;;;2.13;1.40;;;28.20;40.00;;;;;;4978940;28;20197;-69
2022/07/12 08:55:56;;;;;;;2.60;1.40;;;28.20;39.60;;;;;;4995736;28;20680;-68
2022/07/12 08:58:23;;;;;;;1.30;1.20;;;27.90;40.00;;;;;;4978193;28;20206;-67
2022/07/12 09:00:50;;;;;;;1.80;0.88;;;27.90;40.10;;;;;;4978331;28;20217;-69
2022/07/12 09:03:19;;;;;;;1.25;0.85;;;27.80;40.40;;;;;;4978491;28;20200;-69
2022/07/12 09:05:51;;;;;;;1.15;1.10;;;27.80;40.00;;;;;;4978257;28;20217;-69
2022/07/12 09:08:18;;;;;;;0.90;0.90;;;27.70;40.00;;;;;;4995485;28;20683;-69
2022/07/12 09:10:57;;;;;;;0.95;0.95;;;27.60;39.70;;;;;;4977960;28;20216;-69
2022/07/12 09:13:49;;;;;;;1.42;0.95;;;27.60;40.30;;;;;;4995592;28;20192;-69
2022/07/12 09:16:18;;;;;;;0.90;0.90;;;27.70;40.30;;;;;;4995493;28;20212;-69
2022/07/12 09:18:46;;;;;;;0.80;0.80;;;27.70;40.40;;;;;;4977789;28;20259;-69
2022/07/12 09:21:24;;;;;;;1.15;1.10;;;27.60;40.40;;;;;;4995251;28;20621;-69
2022/07/12 09:23:57;;;;;;;0.80;0.80;;;27.60;41.30;;;;;;4977498;28;20208;-69
2022/07/12 09:26:25;;;;;;;2.15;0.98;;;27.40;40.90;;;;;;4977666;28;20288;-69
2022/07/12 09:28:52;;;;;;;0.90;0.90;;;27.20;41.30;;;;;;4977854;28;20196;-69
2022/07/12 09:31:20;;;;;;;1.30;1.13;;;27.20;41.50;;;;;;4977691;28;20216;-68
2022/07/12 09:36:58;;;;;;;1.65;1.08;;;27.40;41.40;;;;;;4977582;28;20569;-68
2022/07/12 09:39:26;;;;;;;1.80;1.02;;;27.50;41.20;;;;;;4978008;28;20192;-69
2022/07/12 09:41:57;;;;;;;1.25;1.15;;;27.50;41.30;;;;;;4978061;28;20221;-69
2022/07/12 09:44:24;;;;;;;1.95;1.10;;;27.40;41.50;;;;;;4977956;28;20220;-70
2022/07/12 09:46:51;;;;;;;1.30;1.10;;;27.30;41.50;;;;;;4978226;28;20201;-69
2022/07/12 09:49:20;;;;;;;1.38;1.08;;;27.40;41.60;;;;;;4995053;28;20239;-69
2022/07/12 09:51:48;;;;;;;1.60;1.10;;;27.40;41.60;;;;;;4977046;28;20200;-67
2022/07/12 09:54:16;;;;;;;1.05;1.00;;;27.50;42.20;;;;;;4978255;28;20219;-69
2022/07/12 09:56:43;;;;;;;1.00;0.90;;;27.50;42.10;;;;;;4995447;28;20196;-69
2022/07/12 09:59:10;;;;;;;0.93;0.93;;;27.50;41.40;;;;;;4977854;28;20207;-69
2022/07/12 10:01:37;;;;;;;1.08;1.00;;;27.60;41.20;;;;;;4977846;28;20200;-68
2022/07/12 10:04:05;;;;;;;1.38;0.90;;;27.60;41.00;;;;;;4995235;28;20189;-69
2022/07/12 10:06:33;;;;;;;0.90;0.90;;;27.60;41.10;;;;;;4978631;28;20247;-70
2022/07/12 10:09:00;;;;;;;0.85;0.82;;;27.60;41.10;;;;;;4977695;28;20197;-69
2022/07/12 10:11:27;;;;;;;0.80;0.80;;;27.60;41.10;;;;;;4994857;28;20791;-69
2022/07/12 10:13:54;;;;;;;1.08;1.00;;;27.60;40.90;;;;;;4977525;28;20197;-69
2022/07/12 10:16:26;;;;;;;1.58;0.90;;;27.60;40.70;;;;;;4977505;28;20274;-69
2022/07/12 10:19:24;;;;;;;0.80;0.80;;;27.60;40.60;;;;;;4994925;28;20232;-69
2022/07/12 10:21:52;;;;;;;1.50;1.00;;;27.60;40.50;;;;;;4977002;28;20199;-69
2022/07/12 10:24:48;;;;;;;0.80;0.80;;;27.70;40.50;;;;;;4976921;28;20314;-69
2022/07/12 10:27:32;;;;;;;1.10;0.70;;;27.70;40.40;;;;;;4976894;28;20203;-69
2022/07/12 10:30:19;;;;;;;0.85;0.85;;;27.70;40.40;;;;;;4994474;28;20204;-69
2022/07/12 10:32:48;;;;;;;0.88;0.75;;;27.70;40.40;;;;;;4977473;28;20224;-69
2022/07/12 10:35:17;;;;;;;1.33;0.80;;;27.70;40.40;;;;;;4994443;28;20288;-69
2022/07/12 10:38:19;;;;;;;1.35;0.90;;;27.70;40.60;;;;;;4977243;28;20283;-69
2022/07/12 10:40:47;;;;;;;0.73;0.73;;;27.60;40.60;;;;;;4977286;28;20204;-69
2022/07/12 10:43:21;;;;;;;1.10;0.50;;;27.70;40.70;;;;;;4994461;28;20622;-69
2022/07/12 10:45:49;;;;;;;0.55;0.55;;;27.70;40.70;;;;;;4976432;28;20252;-69
2022/07/12 10:48:23;;;;;;;0.65;0.65;;;27.70;40.70;;;;;;4994063;28;20189;-69
2022/07/12 10:50:58;;;;;;;1.50;0.82;;;27.70;40.60;;;;;;4994042;28;20307;-69
2022/07/12 10:53:33;;;;;;;0.65;0.65;;;27.60;40.70;;;;;;4976987;28;20243;-69
2022/07/12 10:56:19;;;;;;;0.85;0.70;;;27.60;40.90;;;;;;4976475;28;20236;-68
2022/07/12 10:58:47;;;;;;;0.80;0.80;;;27.50;40.90;;;;;;4976341;28;20291;-69
2022/07/12 11:01:17;;;;;;;0.70;0.60;;;27.40;41.70;;;;;;4976227;28;20204;-69
2022/07/12 11:03:45;;;;;;;0.63;0.63;;;27.40;41.20;;;;;;4979093;28;20224;-69
2022/07/12 11:06:14;;;;;;;0.82;0.70;;;27.30;41.30;;;;;;4980111;28;20705;-69
2022/07/12 11:08:56;;;;;;;1.23;0.60;;;27.30;41.50;;;;;;4979981;28;20196;-69
2022/07/12 11:11:24;;;;;;;1.30;0.70;;;27.20;41.60;;;;;;4997792;28;20707;-69
2022/07/12 11:13:51;;;;;;;0.70;0.50;;;27.20;41.80;;;;;;4980086;28;20193;-69
2022/07/12 11:16:18;;;;;;;1.10;0.60;;;27.20;41.90;;;;;;4980285;28;20212;-69
2022/07/12 11:18:45;;;;;;;0.80;0.80;;;27.10;41.90;;;;;;4997751;28;20275;-69
2022/07/12 11:21:12;;;;;;;1.33;0.70;;;27.10;41.90;;;;;;4997677;28;20193;-70
2022/07/12 11:23:40;;;;;;;0.65;0.50;;;27.00;41.90;;;;;;4997436;28;20574;-69
2022/07/12 11:26:09;;;;;;;0.70;0.70;;;27.00;42.10;;;;;;4980108;28;20220;-69
2022/07/12 11:28:37;;;;;;;0.70;0.60;;;26.90;42.20;;;;;;4997657;28;20271;-69
2022/07/12 11:31:05;;;;;;;0.75;0.70;;;27.00;42.30;;;;;;4980214;28;20217;-69
2022/07/12 11:33:33;;;;;;;0.90;0.73;;;26.90;42.40;;;;;;4997455;28;20677;-69
2022/07/12 11:36:01;;;;;;;1.15;0.50;;;26.90;42.50;;;;;;4979765;28;20244;-69
2022/07/12 11:38:29;;;;;;;0.60;0.60;;;26.90;42.60;;;;;;4997622;28;20658;-69
2022/07/12 11:40:57;;;;;;;0.75;0.68;;;26.80;42.70;;;;;;4979739;28;20247;-68
2022/07/12 11:43:25;;;;;;;2.83;0.82;;;26.80;42.80;;;;;;4979641;28;20207;-70
2022/07/12 11:45:53;;;;;;;1.95;0.90;;;26.80;42.90;;;;;;4979639;28;20225;-69
2022/07/12 11:48:20;;;;;;;1.58;0.85;;;26.80;42.90;;;;;;4997034;28;20192;-69
2022/07/12 11:50:48;;;;;;;1.27;0.70;;;26.80;43.00;;;;;;4997091;28;20212;-69
2022/07/12 11:53:18;;;;;;;2.25;0.80;;;26.80;43.20;;;;;;4996944;28;20219;-69
2022/07/12 11:55:46;;;;;;;0.80;0.80;;;26.70;43.10;;;;;;4996822;28;20215;-69
2022/07/12 11:58:13;;;;;;;1.38;1.00;;;26.80;43.70;;;;;;4979582;28;20196;-69
2022/07/12 12:00:41;;;;;;;1.70;0.90;;;26.80;43.20;;;;;;4995626;22;20219;-67
2022/07/12 12:03:08;;;;;;;1.35;0.88;;;26.80;43.30;;;;;;4997158;28;20219;-67
2022/07/12 12:05:36;;;;;;;1.42;0.70;;;26.80;43.40;;;;;;4979705;28;20623;-67
2022/07/12 12:08:04;;;;;;;1.60;0.75;;;26.70;43.40;;;;;;4996934;28;20208;-68
2022/07/12 12:10:31;;;;;;;1.80;0.73;;;26.70;43.50;;;;;;4979598;28;20223;-67
2022/07/12 12:12:59;;;;;;;1.27;0.70;;;26.70;43.50;;;;;;4979430;28;20205;-67
2022/07/12 12:15:27;;;;;;;3.10;0.80;;;26.60;43.60;;;;;;4978865;28;20205;-67
2022/07/12 12:17:56;;;;;;;1.48;0.85;;;26.60;43.70;;;;;;4979423;28;20217;-67
2022/07/12 12:20:24;;;;;;;1.27;0.70;;;26.60;43.70;;;;;;4996699;28;20193;-67
2022/07/12 12:22:53;;;;;;;0.60;0.60;;;26.60;43.90;;;;;;4979198;28;20565;-67
2022/07/12 12:25:20;;;;;;;1.15;0.90;;;26.60;43.90;;;;;;4979108;28;20736;-67
2022/07/12 12:27:48;;;;;;;1.00;0.88;;;26.50;44.00;;;;;;4978939;28;20299;-67
2022/07/12 12:30:16;;;;;;;0.75;0.70;;;26.50;44.20;;;;;;4979292;28;20249;-67
2022/07/12 12:32:47;;;;;;;1.58;0.70;;;26.50;44.30;;;;;;4978322;28;20204;-66
2022/07/12 12:35:16;;;;;;;2.13;0.80;;;26.40;44.50;;;;;;4996050;28;20193;-67
2022/07/12 12:37:50;;;;;;;1.77;0.75;;;26.40;44.60;;;;;;4977392;28;20200;-66
2022/07/12 12:40:19;;;;;;;1.65;0.80;;;26.30;44.60;;;;;;4978625;28;20540;-67
2022/07/12 12:42:48;;;;;;;2.50;0.65;;;26.30;44.60;;;;;;4996243;28;20187;-67
2022/07/12 12:45:22;;;;;;;0.93;0.90;;;26.30;44.90;;;;;;4978607;28;20292;-67
2022/07/12 12:47:56;;;;;;;3.67;0.90;;;26.30;45.00;;;;;;4996455;28;20208;-67
2022/07/12 12:50:48;;;;;;;1.85;0.80;;;26.30;45.00;;;;;;4978723;28;20612;-67
2022/07/12 12:53:16;;;;;;;1.23;0.90;;;26.20;45.00;;;;;;4978792;28;20189;-67
2022/07/12 12:55:44;;;;;;;0.98;0.70;;;26.20;45.20;;;;;;4996192;28;20193;-67
2022/07/12 12:58:12;;;;;;;0.98;0.80;;;26.20;45.20;;;;;;4978449;28;20248;-67
2022/07/12 13:00:39;;;;;;;0.85;0.77;;;26.20;45.20;;;;;;4995744;28;20189;-67
2022/07/12 13:03:07;;;;;;;0.60;0.60;;;26.20;45.10;;;;;;4978483;28;20653;-67